Mineral Point, PA (15942)

5:17 PM EDT on August 21, 2014 (GMT -0400)
Chickaree Summit | Change Station
CLOSE
Current Station
Personal Weather Station
Location: Johnstown, PA
Elevation: 1759 ft
Nearby Weather Stations

Elev 1759 ft 40.42 °N, 78.87 °W | Updated 15 seconds ago

Clear
Clear
74.5 °F
Feels Like 73 °F
N
0.0
Wind Variable Wind from East
Gusts 3.0 mph

Today
High -- | Low -- °F
--% Chance of Precip.
Yesterday
High -- | Low -- °F
Precip. -- in
6:32 AM 8:04 PM
Waning Crescent, 12% visible
Pressure 30.04 in
Visibility 10.0 miles
Clouds Clear
Heat Index 73 °F
Dew Point 71 °F
Humidity 89%
Rainfall 0.00 in
Snow Depth Not available.
UV 4 out of 12
Pollen 9.50 out of 12
Air Quality Not available.
Flu Activity Not available.
METAR KJST 212054Z AUTO 26010KT 10SM CLR 23/17 A3008 RMK AO2 SLP173 T02280172 55001

More Conditions Fewer Conditions

Pressure 30.04 in
Visibility 10.0 miles
Clouds Clear
Heat Index 73 °F
Dew Point 71 °F
Humidity 89%
Rainfall 0.00 in
Snow Depth Not available.
UV 4 out of 12
Pollen 9.50 out of 12
Air Quality Not available.
Flu Activity Not available.
METAR KJST 212054Z AUTO 26010KT 10SM CLR 23/17 A3008 RMK AO2 SLP173 T02280172 55001

More Conditions Fewer Conditions

10-Day Weather Forecast

Almanac

Astronomy

Aug. 21, 2014 Rise Set
Actual Time 6:32 AM EDT 8:04 PM EDT
Civil Twilight 6:03 AM EDT 8:32 PM EDT
Nautical Twilight 5:28 AM EDT 9:07 PM EDT
Astronomical Twilight 4:51 AM EDT 9:43 PM EDT
Moon 3:00 AM EDT 5:32 PM EDT
Length of Visible Light 14h 29m
Length of Day
13h 32m
Tomorrow will be 2m 27s shorter.
Waning Crescent, 12% of the Moon is Illuminated
Today
Waning Crescent
Aug 25
New
Sep 2
First Quarter
Sep 8
Full
Sep 15
Last Quarter

Today's Extremes

State Highs State Lows

Community

WunderPhotos

Upload Photos

1,746,019 photos uploaded!

WunderBlogs® & News

Nearby

Snow Depth

Station Depth Elevation
No new snow has been reported.

Earthquake Activity

City Distance Mag. Time & Date
No recent earthquake activity has been reported nearby.
Minimum magnitude displayed is 2.5.

Coastal Water Temperatures

Place Temperature
No Stations Reporting

Nearby Weather Stations